sensor_id;sensor_type;location;lat;lon;timestamp;pressure;altitude;pressure_sealevel;temperature;humidity
19789;BME280;10054;59.332;18.244;2022-10-31T00:01:39;101198.63;;;1.88;100.00
19789;BME280;10054;59.332;18.244;2022-10-31T00:04:07;101201.27;;;1.85;100.00
19789;BME280;10054;59.332;18.244;2022-10-31T00:06:36;101195.23;;;1.83;100.00
19789;BME280;10054;59.332;18.244;2022-10-31T00:09:05;101192.64;;;1.83;100.00
19789;BME280;10054;59.332;18.244;2022-10-31T00:11:35;101197.38;;;1.85;100.00
19789;BME280;10054;59.332;18.244;2022-10-31T00:14:04;101196.88;;;1.89;100.00
19789;BME280;10054;59.332;18.244;2022-10-31T00:16:33;101199.04;;;1.89;100.00
19789;BME280;10054;59.332;18.244;2022-10-31T00:19:03;101194.25;;;1.90;100.00
19789;BME280;10054;59.332;18.244;2022-10-31T00:21:33;101192.48;;;1.92;100.00
19789;BME280;10054;59.332;18.244;2022-10-31T00:24:02;101190.30;;;1.93;100.00
19789;BME280;10054;59.332;18.244;2022-10-31T00:26:31;101193.36;;;1.91;100.00
19789;BME280;10054;59.332;18.244;2022-10-31T00:29:00;101195.99;;;1.90;100.00
19789;BME280;10054;59.332;18.244;2022-10-31T00:31:29;101191.67;;;1.89;100.00
19789;BME280;10054;59.332;18.244;2022-10-31T00:34:00;101189.52;;;1.88;100.00
19789;BME280;10054;59.332;18.244;2022-10-31T00:36:30;101184.31;;;1.88;100.00
19789;BME280;10054;59.332;18.244;2022-10-31T00:38:59;101186.50;;;1.87;100.00
19789;BME280;10054;59.332;18.244;2022-10-31T00:41:28;101186.11;;;1.85;100.00
19789;BME280;10054;59.332;18.244;2022-10-31T00:43:57;101190.45;;;1.84;100.00
19789;BME280;10054;59.332;18.244;2022-10-31T00:46:26;101187.44;;;1.83;100.00
19789;BME280;10054;59.332;18.244;2022-10-31T00:48:55;101190.92;;;1.82;100.00
19789;BME280;10054;59.332;18.244;2022-10-31T00:51:25;101187.08;;;1.79;100.00
19789;BME280;10054;59.332;18.244;2022-10-31T00:53:53;101193.16;;;1.78;100.00
19789;BME280;10054;59.332;18.244;2022-10-31T00:56:22;101190.53;;;1.80;100.00
19789;BME280;10054;59.332;18.244;2022-10-31T00:58:52;101195.77;;;1.78;100.00
19789;BME280;10054;59.332;18.244;2022-10-31T01:01:21;101189.73;;;1.76;100.00
19789;BME280;10054;59.332;18.244;2022-10-31T01:03:50;101191.00;;;1.78;100.00
19789;BME280;10054;59.332;18.244;2022-10-31T01:06:19;101189.70;;;1.78;100.00
19789;BME280;10054;59.332;18.244;2022-10-31T01:08:48;101185.36;;;1.78;100.00
19789;BME280;10054;59.332;18.244;2022-10-31T01:11:23;101188.77;;;1.82;100.00
19789;BME280;10054;59.332;18.244;2022-10-31T01:13:53;101185.72;;;1.82;100.00
19789;BME280;10054;59.332;18.244;2022-10-31T01:16:25;101193.55;;;1.81;100.00
19789;BME280;10054;59.332;18.244;2022-10-31T01:18:54;101183.64;;;1.77;100.00
19789;BME280;10054;59.332;18.244;2022-10-31T01:21:25;101188.84;;;1.77;100.00
19789;BME280;10054;59.332;18.244;2022-10-31T01:23:56;101182.81;;;1.75;100.00
19789;BME280;10054;59.332;18.244;2022-10-31T01:26:27;101187.16;;;1.75;100.00
19789;BME280;10054;59.332;18.244;2022-10-31T01:28:59;101193.24;;;1.74;100.00
19789;BME280;10054;59.332;18.244;2022-10-31T01:31:31;101189.34;;;1.74;100.00
19789;BME280;10054;59.332;18.244;2022-10-31T01:34:00;101180.73;;;1.70;100.00
19789;BME280;10054;59.332;18.244;2022-10-31T01:36:32;101185.52;;;1.69;100.00
19789;BME280;10054;59.332;18.244;2022-10-31T01:39:09;101183.36;;;1.69;100.00
19789;BME280;10054;59.332;18.244;2022-10-31T01:41:35;101180.75;;;1.69;100.00
19789;BME280;10054;59.332;18.244;2022-10-31T01:49:35;101175.61;;;1.65;100.00
19789;BME280;10054;59.332;18.244;2022-10-31T01:52:24;101169.05;;;1.69;100.00
19789;BME280;10054;59.332;18.244;2022-10-31T01:55:48;101165.98;;;1.71;100.00
19789;BME280;10054;59.332;18.244;2022-10-31T01:57:34;101171.16;;;1.72;100.00
19789;BME280;10054;59.332;18.244;2022-10-31T02:00:06;101177.71;;;1.69;100.00
19789;BME280;10054;59.332;18.244;2022-10-31T02:02:42;101176.88;;;1.67;100.00
19789;BME280;10054;59.332;18.244;2022-10-31T02:05:14;101180.81;;;1.65;100.00
19789;BME280;10054;59.332;18.244;2022-10-31T02:10:40;101177.42;;;1.60;100.00
19789;BME280;10054;59.332;18.244;2022-10-31T02:13:11;101173.98;;;1.58;100.00
19789;BME280;10054;59.332;18.244;2022-10-31T02:15:44;101177.45;;;1.59;100.00
19789;BME280;10054;59.332;18.244;2022-10-31T02:18:14;101178.75;;;1.59;100.00
19789;BME280;10054;59.332;18.244;2022-10-31T02:20:54;101187.41;;;1.59;100.00
19789;BME280;10054;59.332;18.244;2022-10-31T02:34:00;101186.97;;;1.60;100.00
19789;BME280;10054;59.332;18.244;2022-10-31T02:36:37;101181.38;;;1.57;100.00
19789;BME280;10054;59.332;18.244;2022-10-31T02:39:18;101189.59;;;1.58;100.00
19789;BME280;10054;59.332;18.244;2022-10-31T02:42:04;101185.72;;;1.57;100.00
19789;BME280;10054;59.332;18.244;2022-10-31T02:44:51;101183.07;;;1.60;100.00
19789;BME280;10054;59.332;18.244;2022-10-31T02:47:26;101183.92;;;1.60;100.00
19789;BME280;10054;59.332;18.244;2022-10-31T02:50:12;101184.78;;;1.61;100.00
19789;BME280;10054;59.332;18.244;2022-10-31T02:52:41;101183.51;;;1.59;100.00
19789;BME280;10054;59.332;18.244;2022-10-31T02:58:10;101188.24;;;1.61;100.00
19789;BME280;10054;59.332;18.244;2022-10-31T03:03:25;101194.25;;;1.65;100.00
19789;BME280;10054;59.332;18.244;2022-10-31T03:05:54;101197.69;;;1.67;100.00
19789;BME280;10054;59.332;18.244;2022-10-31T03:08:42;101199.77;;;1.72;100.00
19789;BME280;10054;59.332;18.244;2022-10-31T03:11:03;101197.97;;;1.76;100.00
19789;BME280;10054;59.332;18.244;2022-10-31T03:16:14;101196.88;;;1.89;100.00
19789;BME280;10054;59.332;18.244;2022-10-31T03:18:57;101196.33;;;1.95;100.00
19789;BME280;10054;59.332;18.244;2022-10-31T03:24:06;101185.58;;;2.14;100.00
19789;BME280;10054;59.332;18.244;2022-10-31T03:26:38;101186.14;;;2.28;100.00
19789;BME280;10054;59.332;18.244;2022-10-31T03:29:10;101189.45;;;2.36;100.00
19789;BME280;10054;59.332;18.244;2022-10-31T03:31:46;101188.06;;;2.41;100.00
19789;BME280;10054;59.332;18.244;2022-10-31T03:34:16;101185.81;;;2.45;100.00
19789;BME280;10054;59.332;18.244;2022-10-31T03:36:51;101189.22;;;2.48;100.00
19789;BME280;10054;59.332;18.244;2022-10-31T03:39:21;101191.34;;;2.50;100.00
19789;BME280;10054;59.332;18.244;2022-10-31T03:42:07;101185.25;;;2.51;100.00
19789;BME280;10054;59.332;18.244;2022-10-31T03:44:26;101184.33;;;2.54;100.00
19789;BME280;10054;59.332;18.244;2022-10-31T03:46:58;101193.00;;;2.54;100.00
19789;BME280;10054;59.332;18.244;2022-10-31T03:49:28;101185.13;;;2.57;100.00
19789;BME280;10054;59.332;18.244;2022-10-31T03:52:03;101179.88;;;2.59;100.00
19789;BME280;10054;59.332;18.244;2022-10-31T03:54:40;101180.30;;;2.60;100.00
19789;BME280;10054;59.332;18.244;2022-10-31T04:00:13;101184.08;;;2.66;100.00
19789;BME280;10054;59.332;18.244;2022-10-31T04:02:51;101181.09;;;2.63;100.00
19789;BME280;10054;59.332;18.244;2022-10-31T04:05:21;101181.98;;;2.62;100.00
19789;BME280;10054;59.332;18.244;2022-10-31T04:07:53;101175.91;;;2.62;100.00
19789;BME280;10054;59.332;18.244;2022-10-31T04:10:23;101182.45;;;2.60;100.00
19789;BME280;10054;59.332;18.244;2022-10-31T04:12:57;101188.52;;;2.61;100.00
19789;BME280;10054;59.332;18.244;2022-10-31T04:15:27;101181.16;;;2.60;100.00
19789;BME280;10054;59.332;18.244;2022-10-31T04:17:58;101172.92;;;2.59;100.00
19789;BME280;10054;59.332;18.244;2022-10-31T04:20:33;101168.06;;;2.63;100.00
19789;BME280;10054;59.332;18.244;2022-10-31T04:23:04;101165.30;;;2.71;100.00
19789;BME280;10054;59.332;18.244;2022-10-31T04:25:33;101157.77;;;2.78;100.00
19789;BME280;10054;59.332;18.244;2022-10-31T04:28:02;101166.68;;;2.87;100.00
19789;BME280;10054;59.332;18.244;2022-10-31T04:30:31;101158.25;;;2.95;100.00
19789;BME280;10054;59.332;18.244;2022-10-31T04:33:01;101157.19;;;3.03;100.00
19789;BME280;10054;59.332;18.244;2022-10-31T04:35:30;101151.34;;;3.11;100.00
19789;BME280;10054;59.332;18.244;2022-10-31T04:37:59;101149.66;;;3.27;100.00
19789;BME280;10054;59.332;18.244;2022-10-31T04:40:28;101145.37;;;3.43;100.00
19789;BME280;10054;59.332;18.244;2022-10-31T04:43:14;101145.28;;;3.63;100.00
19789;BME280;10054;59.332;18.244;2022-10-31T04:45:45;101139.59;;;3.80;100.00
19789;BME280;10054;59.332;18.244;2022-10-31T04:48:15;101144.12;;;3.90;100.00
19789;BME280;10054;59.332;18.244;2022-10-31T04:50:44;101138.16;;;4.01;100.00
19789;BME280;10054;59.332;18.244;2022-10-31T04:53:13;101142.23;;;4.11;100.00
19789;BME280;10054;59.332;18.244;2022-10-31T04:55:47;101142.44;;;4.20;100.00
19789;BME280;10054;59.332;18.244;2022-10-31T04:58:17;101138.44;;;4.23;100.00
19789;BME280;10054;59.332;18.244;2022-10-31T05:00:46;101133.84;;;4.31;100.00
19789;BME280;10054;59.332;18.244;2022-10-31T05:03:15;101127.59;;;4.37;100.00
19789;BME280;10054;59.332;18.244;2022-10-31T05:05:44;101128.36;;;4.40;100.00
19789;BME280;10054;59.332;18.244;2022-10-31T05:08:13;101125.09;;;4.47;100.00
19789;BME280;10054;59.332;18.244;2022-10-31T05:10:42;101123.29;;;4.49;100.00
19789;BME280;10054;59.332;18.244;2022-10-31T05:13:11;101126.76;;;4.49;100.00
19789;BME280;10054;59.332;18.244;2022-10-31T05:15:58;101127.56;;;4.51;100.00
19789;BME280;10054;59.332;18.244;2022-10-31T05:18:45;101119.91;;;4.60;100.00
19789;BME280;10054;59.332;18.244;2022-10-31T05:21:32;101133.47;;;4.73;100.00
19789;BME280;10054;59.332;18.244;2022-10-31T05:24:02;101128.17;;;4.89;100.00
19789;BME280;10054;59.332;18.244;2022-10-31T05:26:33;101126.75;;;5.07;100.00
19789;BME280;10054;59.332;18.244;2022-10-31T05:29:02;101121.05;;;5.20;100.00
19789;BME280;10054;59.332;18.244;2022-10-31T05:31:31;101124.06;;;5.35;100.00
19789;BME280;10054;59.332;18.244;2022-10-31T05:34:01;101123.66;;;5.47;100.00
19789;BME280;10054;59.332;18.244;2022-10-31T05:36:34;101123.30;;;5.57;100.00
19789;BME280;10054;59.332;18.244;2022-10-31T05:39:19;101122.03;;;5.69;100.00
19789;BME280;10054;59.332;18.244;2022-10-31T05:41:50;101116.38;;;5.81;100.00
19789;BME280;10054;59.332;18.244;2022-10-31T05:44:21;101120.92;;;5.89;100.00
19789;BME280;10054;59.332;18.244;2022-10-31T05:46:51;101124.50;;;5.99;100.00
19789;BME280;10054;59.332;18.244;2022-10-31T05:49:22;101121.26;;;6.04;100.00
19789;BME280;10054;59.332;18.244;2022-10-31T05:52:09;101127.13;;;6.10;100.00
19789;BME280;10054;59.332;18.244;2022-10-31T05:54:40;101112.45;;;6.18;100.00
19789;BME280;10054;59.332;18.244;2022-10-31T05:57:09;101120.59;;;6.22;100.00
19789;BME280;10054;59.332;18.244;2022-10-31T05:59:38;101113.42;;;6.27;100.00
19789;BME280;10054;59.332;18.244;2022-10-31T06:02:07;101117.92;;;6.35;100.00
19789;BME280;10054;59.332;18.244;2022-10-31T06:04:54;101112.17;;;6.37;100.00
19789;BME280;10054;59.332;18.244;2022-10-31T06:07:23;101115.08;;;6.41;100.00
19789;BME280;10054;59.332;18.244;2022-10-31T06:09:53;101119.69;;;6.46;100.00
19789;BME280;10054;59.332;18.244;2022-10-31T06:12:22;101112.51;;;6.51;100.00
19789;BME280;10054;59.332;18.244;2022-10-31T06:14:52;101112.45;;;6.53;100.00
19789;BME280;10054;59.332;18.244;2022-10-31T06:17:21;101118.32;;;6.59;100.00
19789;BME280;10054;59.332;18.244;2022-10-31T06:19:51;101122.13;;;6.63;100.00
19789;BME280;10054;59.332;18.244;2022-10-31T06:22:21;101122.02;;;6.66;100.00
19789;BME280;10054;59.332;18.244;2022-10-31T06:24:50;101116.50;;;6.72;100.00
19789;BME280;10054;59.332;18.244;2022-10-31T06:27:29;101118.16;;;6.74;100.00
19789;BME280;10054;59.332;18.244;2022-10-31T06:30:00;101119.69;;;6.80;100.00
19789;BME280;10054;59.332;18.244;2022-10-31T06:32:30;101111.19;;;6.85;100.00
19789;BME280;10054;59.332;18.244;2022-10-31T06:34:59;101116.25;;;6.89;100.00
19789;BME280;10054;59.332;18.244;2022-10-31T06:37:28;101118.69;;;6.94;100.00
19789;BME280;10054;59.332;18.244;2022-10-31T06:39:59;101119.88;;;6.97;100.00
19789;BME280;10054;59.332;18.244;2022-10-31T06:42:30;101124.55;;;7.01;100.00
19789;BME280;10054;59.332;18.244;2022-10-31T06:45:00;101135.72;;;7.06;100.00
19789;BME280;10054;59.332;18.244;2022-10-31T06:47:39;101138.03;;;7.13;100.00
19789;BME280;10054;59.332;18.244;2022-10-31T06:50:10;101127.81;;;7.17;100.00
19789;BME280;10054;59.332;18.244;2022-10-31T06:52:39;101124.55;;;7.22;100.00
19789;BME280;10054;59.332;18.244;2022-10-31T06:55:09;101132.56;;;7.30;100.00
19789;BME280;10054;59.332;18.244;2022-10-31T06:57:38;101135.80;;;7.36;100.00
19789;BME280;10054;59.332;18.244;2022-10-31T07:00:09;101135.61;;;7.41;100.00
19789;BME280;10054;59.332;18.244;2022-10-31T07:02:56;101134.13;;;7.44;100.00
19789;BME280;10054;59.332;18.244;2022-10-31T07:05:26;101133.61;;;7.46;100.00
19789;BME280;10054;59.332;18.244;2022-10-31T07:08:00;101134.73;;;7.50;100.00
19789;BME280;10054;59.332;18.244;2022-10-31T07:10:31;101134.81;;;7.59;100.00
19789;BME280;10054;59.332;18.244;2022-10-31T07:13:04;101139.81;;;7.65;100.00
19789;BME280;10054;59.332;18.244;2022-10-31T07:15:35;101139.16;;;7.70;100.00
19789;BME280;10054;59.332;18.244;2022-10-31T07:18:06;101143.23;;;7.77;100.00
19789;BME280;10054;59.332;18.244;2022-10-31T07:20:36;101141.85;;;7.79;100.00
19789;BME280;10054;59.332;18.244;2022-10-31T07:23:05;101149.60;;;7.82;100.00
19789;BME280;10054;59.332;18.244;2022-10-31T07:25:34;101151.31;;;7.83;100.00
19789;BME280;10054;59.332;18.244;2022-10-31T07:28:14;101147.23;;;7.86;100.00
19789;BME280;10054;59.332;18.244;2022-10-31T07:30:49;101134.83;;;7.89;100.00
19789;BME280;10054;59.332;18.244;2022-10-31T07:33:16;101147.83;;;7.93;100.00
19789;BME280;10054;59.332;18.244;2022-10-31T07:35:49;101144.81;;;7.91;100.00
19789;BME280;10054;59.332;18.244;2022-10-31T07:38:19;101143.82;;;7.94;100.00
19789;BME280;10054;59.332;18.244;2022-10-31T07:40:53;101145.99;;;7.95;100.00
19789;BME280;10054;59.332;18.244;2022-10-31T07:43:22;101145.53;;;7.95;100.00
19789;BME280;10054;59.332;18.244;2022-10-31T07:45:53;101154.20;;;7.97;100.00
19789;BME280;10054;59.332;18.244;2022-10-31T07:48:42;101151.91;;;8.00;100.00
19789;BME280;10054;59.332;18.244;2022-10-31T07:51:29;101146.19;;;8.00;100.00
19789;BME280;10054;59.332;18.244;2022-10-31T07:54:06;101142.44;;;8.06;100.00
19789;BME280;10054;59.332;18.244;2022-10-31T07:56:35;101139.22;;;8.09;100.00
19789;BME280;10054;59.332;18.244;2022-10-31T07:59:04;101143.16;;;8.09;100.00
19789;BME280;10054;59.332;18.244;2022-10-31T08:01:33;101143.09;;;8.11;100.00
19789;BME280;10054;59.332;18.244;2022-10-31T08:04:19;101148.54;;;8.16;100.00
19789;BME280;10054;59.332;18.244;2022-10-31T08:07:06;101152.02;;;8.17;100.00
19789;BME280;10054;59.332;18.244;2022-10-31T08:09:36;101145.74;;;8.19;100.00
19789;BME280;10054;59.332;18.244;2022-10-31T08:12:07;101134.31;;;8.20;100.00
19789;BME280;10054;59.332;18.244;2022-10-31T08:14:36;101127.53;;;8.25;100.00
19789;BME280;10054;59.332;18.244;2022-10-31T08:17:05;101130.48;;;8.28;100.00
19789;BME280;10054;59.332;18.244;2022-10-31T08:19:35;101137.84;;;8.30;100.00
19789;BME280;10054;59.332;18.244;2022-10-31T08:22:04;101139.38;;;8.35;100.00
19789;BME280;10054;59.332;18.244;2022-10-31T08:24:33;101148.19;;;8.34;100.00
19789;BME280;10054;59.332;18.244;2022-10-31T08:27:03;101143.31;;;8.35;100.00
19789;BME280;10054;59.332;18.244;2022-10-31T08:29:33;101150.28;;;8.36;100.00
19789;BME280;10054;59.332;18.244;2022-10-31T08:32:02;101144.89;;;8.39;100.00
19789;BME280;10054;59.332;18.244;2022-10-31T08:34:49;101144.29;;;8.43;100.00
19789;BME280;10054;59.332;18.244;2022-10-31T08:37:36;101151.58;;;8.46;100.00
19789;BME280;10054;59.332;18.244;2022-10-31T08:40:06;101148.87;;;8.48;100.00
19789;BME280;10054;59.332;18.244;2022-10-31T08:42:35;101140.14;;;8.47;100.00
19789;BME280;10054;59.332;18.244;2022-10-31T08:45:05;101136.98;;;8.49;100.00
19789;BME280;10054;59.332;18.244;2022-10-31T08:47:34;101132.50;;;8.51;100.00
19789;BME280;10054;59.332;18.244;2022-10-31T08:50:05;101134.20;;;8.52;100.00
19789;BME280;10054;59.332;18.244;2022-10-31T08:52:35;101141.50;;;8.56;100.00
19789;BME280;10054;59.332;18.244;2022-10-31T08:55:05;101131.69;;;8.60;100.00
19789;BME280;10054;59.332;18.244;2022-10-31T08:57:56;101136.81;;;8.63;100.00
19789;BME280;10054;59.332;18.244;2022-10-31T09:00:26;101136.42;;;8.62;100.00
19789;BME280;10054;59.332;18.244;2022-10-31T09:03:09;101144.63;;;8.64;100.00
19789;BME280;10054;59.332;18.244;2022-10-31T09:05:32;101137.06;;;8.67;100.00
19789;BME280;10054;59.332;18.244;2022-10-31T09:08:03;101145.41;;;8.66;100.00
19789;BME280;10054;59.332;18.244;2022-10-31T09:10:34;101149.28;;;8.68;100.00
19789;BME280;10054;59.332;18.244;2022-10-31T09:13:12;101145.27;;;8.69;100.00
19789;BME280;10054;59.332;18.244;2022-10-31T09:15:58;101140.79;;;8.71;100.00
19789;BME280;10054;59.332;18.244;2022-10-31T09:18:28;101145.45;;;8.75;100.00
19789;BME280;10054;59.332;18.244;2022-10-31T09:20:59;101143.28;;;8.74;100.00
19789;BME280;10054;59.332;18.244;2022-10-31T09:23:30;101140.05;;;8.78;100.00
19789;BME280;10054;59.332;18.244;2022-10-31T09:26:01;101144.23;;;8.82;100.00
19789;BME280;10054;59.332;18.244;2022-10-31T09:28:43;101142.07;;;8.81;100.00
19789;BME280;10054;59.332;18.244;2022-10-31T09:31:13;101145.02;;;8.84;100.00
19789;BME280;10054;59.332;18.244;2022-10-31T09:33:44;101138.84;;;8.85;100.00
19789;BME280;10054;59.332;18.244;2022-10-31T09:36:14;101146.44;;;8.91;100.00
19789;BME280;10054;59.332;18.244;2022-10-31T09:38:43;101142.00;;;8.92;100.00
19789;BME280;10054;59.332;18.244;2022-10-31T09:46:57;101154.47;;;8.97;100.00
19789;BME280;10054;59.332;18.244;2022-10-31T09:52:56;101148.67;;;8.99;100.00
19789;BME280;10054;59.332;18.244;2022-10-31T09:55:04;101149.38;;;9.02;100.00
19789;BME280;10054;59.332;18.244;2022-10-31T09:57:38;101151.87;;;9.05;100.00
19789;BME280;10054;59.332;18.244;2022-10-31T10:00:04;101147.39;;;9.07;100.00
19789;BME280;10054;59.332;18.244;2022-10-31T10:02:56;101141.13;;;9.10;100.00
19789;BME280;10054;59.332;18.244;2022-10-31T10:05:34;101141.29;;;9.15;100.00
19789;BME280;10054;59.332;18.244;2022-10-31T10:16:57;101145.68;;;9.42;100.00
19789;BME280;10054;59.332;18.244;2022-10-31T10:22:02;101144.22;;;9.54;100.00
19789;BME280;10054;59.332;18.244;2022-10-31T10:24:33;101139.89;;;9.62;100.00
19789;BME280;10054;59.332;18.244;2022-10-31T10:27:23;101138.77;;;9.66;100.00
19789;BME280;10054;59.332;18.244;2022-10-31T10:30:11;101134.67;;;9.69;100.00
19789;BME280;10054;59.332;18.244;2022-10-31T10:32:40;101134.52;;;9.72;100.00
19789;BME280;10054;59.332;18.244;2022-10-31T10:35:17;101131.48;;;9.71;100.00
19789;BME280;10054;59.332;18.244;2022-10-31T10:37:45;101130.09;;;9.72;100.00
19789;BME280;10054;59.332;18.244;2022-10-31T10:40:17;101132.19;;;9.74;100.00
19789;BME280;10054;59.332;18.244;2022-10-31T10:51:58;101141.17;;;9.79;100.00
19789;BME280;10054;59.332;18.244;2022-10-31T11:00:21;101145.52;;;9.80;100.00
19789;BME280;10054;59.332;18.244;2022-10-31T11:02:34;101144.97;;;9.82;100.00
19789;BME280;10054;59.332;18.244;2022-10-31T11:05:09;101147.69;;;9.80;100.00
19789;BME280;10054;59.332;18.244;2022-10-31T11:07:41;101145.05;;;9.80;100.00
19789;BME280;10054;59.332;18.244;2022-10-31T11:10:15;101148.00;;;9.83;100.00
19789;BME280;10054;59.332;18.244;2022-10-31T11:12:57;101144.35;;;9.85;100.00
19789;BME280;10054;59.332;18.244;2022-10-31T11:15:21;101146.44;;;9.87;100.00
19789;BME280;10054;59.332;18.244;2022-10-31T11:17:52;101145.05;;;9.89;100.00
19789;BME280;10054;59.332;18.244;2022-10-31T11:20:24;101141.02;;;9.91;100.00
19789;BME280;10054;59.332;18.244;2022-10-31T11:23:00;101146.13;;;9.94;100.00
19789;BME280;10054;59.332;18.244;2022-10-31T11:25:26;101149.92;;;9.97;100.00
19789;BME280;10054;59.332;18.244;2022-10-31T11:28:02;101151.63;;;9.98;100.00
19789;BME280;10054;59.332;18.244;2022-10-31T11:30:36;101149.30;;;10.00;100.00
19789;BME280;10054;59.332;18.244;2022-10-31T11:33:03;101147.36;;;10.04;100.00
19789;BME280;10054;59.332;18.244;2022-10-31T11:35:32;101149.37;;;10.07;100.00
19789;BME280;10054;59.332;18.244;2022-10-31T11:38:03;101152.70;;;10.11;100.00
19789;BME280;10054;59.332;18.244;2022-10-31T11:40:33;101153.78;;;10.15;100.00
19789;BME280;10054;59.332;18.244;2022-10-31T11:43:01;101159.70;;;10.20;100.00
19789;BME280;10054;59.332;18.244;2022-10-31T11:45:34;101161.71;;;10.24;100.00
19789;BME280;10054;59.332;18.244;2022-10-31T11:48:14;101160.78;;;10.25;100.00
19789;BME280;10054;59.332;18.244;2022-10-31T11:50:38;101161.55;;;10.27;100.00
19789;BME280;10054;59.332;18.244;2022-10-31T11:53:21;101162.32;;;10.29;100.00
19789;BME280;10054;59.332;18.244;2022-10-31T11:56:03;101155.18;;;10.31;100.00
19789;BME280;10054;59.332;18.244;2022-10-31T11:58:24;101157.19;;;10.35;100.00
19789;BME280;10054;59.332;18.244;2022-10-31T12:00:56;101147.41;;;10.37;100.00
19789;BME280;10054;59.332;18.244;2022-10-31T12:03:42;101140.66;;;10.40;100.00
19789;BME280;10054;59.332;18.244;2022-10-31T12:06:24;101143.56;;;10.42;100.00
19789;BME280;10054;59.332;18.244;2022-10-31T12:08:49;101142.00;;;10.47;100.00
19789;BME280;10054;59.332;18.244;2022-10-31T12:14:08;101142.19;;;10.60;100.00
19789;BME280;10054;59.332;18.244;2022-10-31T12:16:55;101138.06;;;10.63;100.00
19789;BME280;10054;59.332;18.244;2022-10-31T12:19:31;101141.39;;;10.66;100.00
19789;BME280;10054;59.332;18.244;2022-10-31T12:22:20;101139.73;;;10.72;100.00
19789;BME280;10054;59.332;18.244;2022-10-31T12:33:19;101115.48;;;10.81;100.00
19789;BME280;10054;59.332;18.244;2022-10-31T12:35:55;101124.72;;;10.81;100.00
19789;BME280;10054;59.332;18.244;2022-10-31T12:44:10;101121.39;;;10.78;100.00
19789;BME280;10054;59.332;18.244;2022-10-31T12:52:06;101122.29;;;10.85;100.00
19789;BME280;10054;59.332;18.244;2022-10-31T12:54:49;101119.09;;;10.88;100.00
19789;BME280;10054;59.332;18.244;2022-10-31T12:57:39;101125.14;;;10.90;100.00
19789;BME280;10054;59.332;18.244;2022-10-31T13:00:03;101121.48;;;10.92;100.00
19789;BME280;10054;59.332;18.244;2022-10-31T13:02:41;101120.46;;;10.95;100.00
19789;BME280;10054;59.332;18.244;2022-10-31T13:08:10;101118.97;;;10.98;100.00
19789;BME280;10054;59.332;18.244;2022-10-31T13:10:42;101119.27;;;11.00;100.00
19789;BME280;10054;59.332;18.244;2022-10-31T13:13:19;101114.75;;;11.02;100.00
19789;BME280;10054;59.332;18.244;2022-10-31T13:16:00;101114.66;;;11.04;100.00
19789;BME280;10054;59.332;18.244;2022-10-31T13:18:35;101117.69;;;11.05;100.00
19789;BME280;10054;59.332;18.244;2022-10-31T13:21:09;101118.16;;;11.04;100.00
19789;BME280;10054;59.332;18.244;2022-10-31T13:23:37;101115.89;;;11.05;100.00
19789;BME280;10054;59.332;18.244;2022-10-31T13:27:01;101112.32;;;11.06;100.00
19789;BME280;10054;59.332;18.244;2022-10-31T13:28:47;101109.68;;;11.06;100.00
19789;BME280;10054;59.332;18.244;2022-10-31T13:31:16;101116.37;;;11.05;100.00
19789;BME280;10054;59.332;18.244;2022-10-31T13:33:48;101124.38;;;11.03;100.00
19789;BME280;10054;59.332;18.244;2022-10-31T13:36:38;101120.88;;;11.03;100.00
19789;BME280;10054;59.332;18.244;2022-10-31T13:39:18;101121.81;;;11.02;100.00
19789;BME280;10054;59.332;18.244;2022-10-31T13:44:28;101104.53;;;10.96;100.00
19789;BME280;10054;59.332;18.244;2022-10-31T13:46:58;101117.48;;;11.01;100.00
19789;BME280;10054;59.332;18.244;2022-10-31T13:54:45;101123.69;;;11.00;100.00
19789;BME280;10054;59.332;18.244;2022-10-31T13:57:20;101116.71;;;10.99;100.00
19789;BME280;10054;59.332;18.244;2022-10-31T14:00:00;101122.84;;;10.99;100.00
19789;BME280;10054;59.332;18.244;2022-10-31T14:02:29;101116.71;;;10.99;100.00
19789;BME280;10054;59.332;18.244;2022-10-31T14:05:03;101117.56;;;10.99;100.00
19789;BME280;10054;59.332;18.244;2022-10-31T14:07:42;101112.16;;;10.94;100.00
19789;BME280;10054;59.332;18.244;2022-10-31T14:13:54;101123.69;;;11.00;100.00
19789;BME280;10054;59.332;18.244;2022-10-31T14:15:41;101118.59;;;10.97;100.00
19789;BME280;10054;59.332;18.244;2022-10-31T14:20:56;101112.84;;;10.97;100.00
19789;BME280;10054;59.332;18.244;2022-10-31T14:23:34;101117.27;;;10.97;100.00
19789;BME280;10054;59.332;18.244;2022-10-31T14:28:57;101113.86;;;10.95;100.00
19789;BME280;10054;59.332;18.244;2022-10-31T14:31:41;101109.98;;;10.93;100.00
19789;BME280;10054;59.332;18.244;2022-10-31T14:34:27;101106.50;;;10.93;100.00
19789;BME280;10054;59.332;18.244;2022-10-31T14:40:24;101106.03;;;10.93;100.00
19789;BME280;10054;59.332;18.244;2022-10-31T14:48:21;101102.63;;;10.91;100.00
19789;BME280;10054;59.332;18.244;2022-10-31T14:50:59;101100.36;;;10.92;100.00
19789;BME280;10054;59.332;18.244;2022-10-31T14:53:24;101101.69;;;10.92;100.00
19789;BME280;10054;59.332;18.244;2022-10-31T14:55:55;101099.13;;;10.91;100.00
19789;BME280;10054;59.332;18.244;2022-10-31T15:01:00;101094.32;;;10.90;100.00
19789;BME280;10054;59.332;18.244;2022-10-31T15:03:34;101086.78;;;10.91;100.00
19789;BME280;10054;59.332;18.244;2022-10-31T15:06:17;101089.51;;;10.90;100.00
19789;BME280;10054;59.332;18.244;2022-10-31T15:08:46;101079.98;;;10.87;100.00